Time;durP1;ratioP1;P1;durP2;ratioP2;P2;SDS_P1;SDS_P2;PMS_P1;PMS_P2;Temp;Humidity;BMP_temperature;BMP_pressure;BME280_temperature;BME280_humidity;BME280_pressure;Samples;Min_cycle;Max_cycle;Signal;HPM_P1;HPM_P2
2021/10/29 00:01:55;;;;;;;19.80;13.95;;;;;;;21.98;57.90;101770.25;1742772;81;21360;-50
2021/10/29 00:04:21;;;;;;;18.60;13.90;;;;;;;21.97;57.88;101769.98;1746199;81;21061;-52
2021/10/29 00:06:47;;;;;;;19.30;13.83;;;;;;;21.95;57.85;101773.05;1743979;81;21058;-48
2021/10/29 00:09:14;;;;;;;19.65;13.38;;;;;;;21.93;57.83;101771.72;1738989;81;22001;-50
2021/10/29 00:11:40;;;;;;;16.67;13.60;;;;;;;21.93;57.82;101771.72;1745660;81;21039;-48
2021/10/29 00:14:06;;;;;;;18.50;14.07;;;;;;;21.91;57.83;101771.98;1740708;81;20913;-49
2021/10/29 00:16:32;;;;;;;19.67;13.68;;;;;;;21.90;57.80;101768.95;1739428;81;21109;-47
2021/10/29 00:18:58;;;;;;;21.45;14.40;;;;;;;21.90;57.82;101768.95;1741143;81;21068;-50
2021/10/29 00:21:24;;;;;;;20.27;14.45;;;;;;;21.88;57.81;101769.83;1740259;81;21128;-47
2021/10/29 00:23:51;;;;;;;18.30;14.80;;;;;;;21.86;57.79;101768.73;1741945;81;21094;-50
2021/10/29 00:26:18;;;;;;;22.07;14.63;;;;;;;21.84;57.75;101767.41;1739182;81;21075;-52
2021/10/29 00:28:44;;;;;;;21.42;14.80;;;;;;;21.83;57.76;101767.13;1746694;81;21323;-49
2021/10/29 00:31:10;;;;;;;21.15;14.75;;;;;;;21.80;57.77;101762.20;1742544;81;21100;-51
2021/10/29 00:33:36;;;;;;;20.17;14.18;;;;;;;21.79;57.76;101760.56;1742006;81;21003;-48
2021/10/29 00:36:03;;;;;;;21.77;14.35;;;;;;;21.78;57.78;101758.34;1739770;81;21111;-50
2021/10/29 00:38:29;;;;;;;19.50;13.98;;;;;;;21.81;57.86;101759.11;1740612;81;21068;-47
2021/10/29 00:40:55;;;;;;;20.50;14.03;;;;;;;21.84;57.99;101755.77;1744265;81;21520;-46
2021/10/29 00:43:22;;;;;;;20.75;14.75;;;;;;;21.85;58.05;101748.28;1739902;81;20916;-47
2021/10/29 00:45:48;;;;;;;27.32;15.85;;;;;;;21.87;58.10;101748.78;1739099;81;21077;-48
2021/10/29 00:48:15;;;;;;;19.95;14.28;;;;;;;21.88;58.06;101751.26;1750743;80;21536;-47
2021/10/29 00:50:41;;;;;;;19.02;13.95;;;;;;;21.91;58.00;101748.98;1758908;80;21146;-48
2021/10/29 00:53:08;;;;;;;21.57;15.65;;;;;;;21.91;57.92;101744.27;1752050;80;21137;-47
2021/10/29 00:55:35;;;;;;;23.10;16.20;;;;;;;21.92;57.82;101752.03;1758240;81;21067;-50
2021/10/29 00:58:01;;;;;;;21.07;15.98;;;;;;;21.91;57.76;101742.06;1758391;79;21111;-49
2021/10/29 01:00:27;;;;;;;22.20;15.45;;;;;;;21.88;57.70;101743.50;1760642;80;22449;-48
2021/10/29 01:02:53;;;;;;;20.92;15.45;;;;;;;21.86;57.68;101743.80;1755018;81;21054;-47
2021/10/29 01:05:19;;;;;;;21.85;16.17;;;;;;;21.85;57.64;101734.42;1758213;80;21531;-47
2021/10/29 01:07:45;;;;;;;22.55;16.50;;;;;;;21.84;57.61;101737.75;1724702;81;20896;-49
2021/10/29 01:10:12;;;;;;;19.98;15.35;;;;;;;21.83;57.60;101736.10;1761205;80;21091;-51
2021/10/29 01:12:38;;;;;;;23.00;16.23;;;;;;;21.82;57.56;101739.16;1761181;80;21080;-53
2021/10/29 01:15:06;;;;;;;22.42;15.38;;;;;;;21.80;57.54;101739.48;1753482;80;21531;-48
2021/10/29 01:17:32;;;;;;;20.62;15.72;;;;;;;21.80;57.53;101738.66;1761548;80;21125;-48
2021/10/29 01:19:59;;;;;;;22.48;16.57;;;;;;;21.78;57.51;101738.13;1754112;81;21380;-51
2021/10/29 01:22:25;;;;;;;23.27;16.67;;;;;;;21.78;57.50;101735.36;1761456;81;21054;-47
2021/10/29 01:24:51;;;;;;;22.73;16.67;;;;;;;21.76;57.48;101727.93;1753594;81;21519;-50
2021/10/29 01:27:18;;;;;;;20.45;15.00;;;;;;;21.74;57.46;101729.61;1762617;79;21144;-50
2021/10/29 01:29:45;;;;;;;23.30;16.80;;;;;;;21.72;57.42;101732.44;1756740;81;21932;-49
2021/10/29 01:32:12;;;;;;;24.35;16.97;;;;;;;21.70;57.45;101731.34;1758262;80;21016;-49
2021/10/29 01:34:39;;;;;;;23.27;16.45;;;;;;;21.69;57.44;101735.78;1761466;80;21084;-47
2021/10/29 01:37:06;;;;;;;23.42;16.80;;;;;;;21.67;57.43;101733.90;1758029;81;21451;-49
2021/10/29 01:39:33;;;;;;;20.25;15.65;;;;;;;21.65;57.45;101734.19;1754066;80;21140;-48
2021/10/29 01:41:59;;;;;;;22.87;16.37;;;;;;;21.64;57.44;101729.77;1760041;80;21232;-47
2021/10/29 01:44:25;;;;;;;21.80;16.62;;;;;;;21.62;57.42;101736.75;1759295;80;20993;-49
2021/10/29 01:46:51;;;;;;;22.98;16.62;;;;;;;21.61;57.43;101731.77;1762884;79;21003;-48
2021/10/29 01:49:18;;;;;;;21.77;15.98;;;;;;;21.61;57.41;101727.61;1760620;79;21060;-47
2021/10/29 01:51:44;;;;;;;23.05;15.98;;;;;;;21.61;57.42;101730.94;1758543;81;21072;-47
2021/10/29 01:54:11;;;;;;;22.60;16.57;;;;;;;21.60;57.43;101739.80;1759708;80;21344;-49
2021/10/29 01:56:38;;;;;;;21.07;15.78;;;;;;;21.59;57.40;101729.88;1756422;79;21137;-50
2021/10/29 01:59:04;;;;;;;22.67;16.27;;;;;;;21.58;57.36;101738.48;1766293;79;21095;-48
2021/10/29 02:01:31;;;;;;;21.68;15.83;;;;;;;21.59;57.37;101727.11;1762639;80;21453;-47
2021/10/29 02:03:57;;;;;;;21.68;15.10;;;;;;;21.61;57.44;101721.25;1758568;80;21074;-56
2021/10/29 02:06:23;;;;;;;24.52;16.55;;;;;;;21.64;57.53;101726.20;1760451;80;21004;-50
2021/10/29 02:08:50;;;;;;;20.75;15.90;;;;;;;21.66;57.65;101727.53;1756418;79;21059;-48
2021/10/29 02:11:16;;;;;;;22.20;16.15;;;;;;;21.67;57.69;101729.19;1756690;81;21626;-47
2021/10/29 02:13:43;;;;;;;22.42;17.00;;;;;;;21.70;57.69;101734.11;1755557;80;20922;-51
2021/10/29 02:16:09;;;;;;;20.88;16.57;;;;;;;21.72;57.61;101731.87;1756746;80;21058;-53
2021/10/29 02:18:35;;;;;;;20.92;16.55;;;;;;;21.74;57.53;101732.94;1760210;79;21766;-47
2021/10/29 02:21:01;;;;;;;22.32;16.15;;;;;;;21.76;57.46;101735.69;1753873;79;21065;-47
2021/10/29 02:23:28;;;;;;;23.87;16.87;;;;;;;21.76;57.36;101730.14;1757625;80;21505;-50
2021/10/29 02:25:54;;;;;;;21.35;16.20;;;;;;;21.77;57.29;101728.99;1759696;80;21093;-51
2021/10/29 02:28:21;;;;;;;22.80;16.60;;;;;;;21.77;57.20;101724.02;1763083;80;21067;-47
2021/10/29 02:30:48;;;;;;;24.85;17.25;;;;;;;21.75;57.11;101721.56;1759580;80;23100;-46
2021/10/29 02:33:16;;;;;;;20.40;16.67;;;;;;;21.74;57.04;101722.69;1754232;80;21052;-48
2021/10/29 02:35:43;;;;;;;26.65;17.48;;;;;;;21.72;56.99;101723.56;1761054;80;21084;-48
2021/10/29 02:38:10;;;;;;;20.90;16.35;;;;;;;21.71;56.97;101729.40;1757069;80;21134;-48
2021/10/29 02:40:36;;;;;;;20.40;16.95;;;;;;;21.68;56.95;101722.53;1755868;80;21094;-49
2021/10/29 02:43:03;;;;;;;23.70;17.10;;;;;;;21.67;56.92;101726.41;1758311;81;21304;-47
2021/10/29 02:45:29;;;;;;;24.85;16.30;;;;;;;21.66;56.90;101722.55;1757195;80;21682;-47
2021/10/29 02:47:55;;;;;;;21.62;16.75;;;;;;;21.65;56.89;101725.05;1760024;80;21199;-47
2021/10/29 02:50:21;;;;;;;21.68;16.75;;;;;;;21.63;56.84;101719.84;1748977;79;21606;-48
2021/10/29 02:52:48;;;;;;;23.90;17.55;;;;;;;21.62;56.84;101719.57;1757740;80;21076;-50
2021/10/29 02:55:14;;;;;;;22.13;16.62;;;;;;;21.60;56.81;101719.04;1749358;81;21545;-48
2021/10/29 02:57:41;;;;;;;24.07;18.07;;;;;;;21.59;56.79;101722.95;1753478;80;21115;-47
2021/10/29 03:00:11;;;;;;;25.70;16.97;;;;;;;21.58;56.74;101736.53;1758835;80;21604;-48
2021/10/29 03:02:38;;;;;;;23.12;17.02;;;;;;;21.56;56.73;101742.09;1761938;81;21020;-47
2021/10/29 03:05:05;;;;;;;22.93;16.57;;;;;;;21.53;56.72;101736.61;1763356;81;21119;-47
2021/10/29 03:07:31;;;;;;;22.52;17.00;;;;;;;21.52;56.73;101737.72;1764672;81;21020;-50
2021/10/29 03:09:56;;;;;;;20.62;16.42;;;;;;;21.52;56.75;101743.27;1761613;80;20912;-49
2021/10/29 03:12:23;;;;;;;22.73;16.52;;;;;;;21.53;56.76;101744.09;1751190;81;21046;-47
2021/10/29 03:14:50;;;;;;;22.10;16.32;;;;;;;21.53;56.77;101744.91;1762800;79;21071;-48
2021/10/29 03:17:16;;;;;;;21.80;14.80;;;;;;;21.56;56.77;101754.55;1762784;81;21069;-47
2021/10/29 03:19:42;;;;;;;18.30;13.70;;;;;;;21.58;56.79;101753.70;1752865;79;21280;-50
2021/10/29 03:22:08;;;;;;;20.15;13.68;;;;;;;21.60;56.74;101752.27;1757462;81;21394;-48
2021/10/29 03:24:35;;;;;;;17.60;13.58;;;;;;;21.62;56.72;101745.87;1765680;81;21047;-47
2021/10/29 03:27:01;;;;;;;20.12;14.10;;;;;;;21.64;56.64;101752.52;1764715;80;21589;-49
2021/10/29 03:29:27;;;;;;;18.42;15.20;;;;;;;21.66;56.61;101752.45;1759446;81;21056;-47
2021/10/29 03:31:53;;;;;;;20.40;15.05;;;;;;;21.68;56.53;101753.00;1767894;81;21319;-46
2021/10/29 03:34:19;;;;;;;20.82;15.03;;;;;;;21.68;56.50;101746.63;1755862;81;20924;-48
2021/10/29 03:36:46;;;;;;;18.98;13.55;;;;;;;21.69;56.46;101756.56;1760523;81;21574;-48
2021/10/29 03:39:25;;;;;;;18.80;14.50;;;;;;;21.70;56.44;101755.44;1757565;80;21098;-47
2021/10/29 03:41:57;;;;;;;18.62;14.38;;;;;;;21.70;56.42;101760.42;1762005;80;21102;-50
2021/10/29 03:47:02;;;;;;;18.70;12.98;;;;;;;21.73;56.37;101759.81;1757787;80;21526;-49
2021/10/29 03:49:33;;;;;;;14.63;11.88;;;;;;;21.73;56.34;101751.50;1763411;80;20990;-50
2021/10/29 03:52:09;;;;;;;18.30;12.95;;;;;;;21.76;56.31;101753.69;1759421;80;21048;-47
2021/10/29 03:54:33;;;;;;;;;;;;;;;21.76;56.31;101746.77;1766702;80;21070;-47
2021/10/29 03:57:40;;;;;;;16.10;12.40;;;;;;;21.78;56.26;101750.03;1766094;80;21087;-46
2021/10/29 03:59:22;;;;;;;16.97;12.85;;;;;;;21.78;56.26;101751.42;1737950;81;21067;-47
2021/10/29 04:01:48;;;;;;;17.45;13.25;;;;;;;21.79;56.24;101753.07;1759773;80;20894;-48
2021/10/29 04:04:14;;;;;;;16.93;13.10;;;;;;;21.79;56.23;101747.53;1763163;80;21070;-50
2021/10/29 04:06:40;;;;;;;19.62;14.13;;;;;;;21.82;56.23;101753.84;1767371;80;21093;-47
2021/10/29 04:09:06;;;;;;;17.75;12.98;;;;;;;21.85;56.31;101756.00;1766118;80;22129;-50
2021/10/29 04:11:39;;;;;;;18.57;13.00;;;;;;;21.89;56.42;101749.31;1762447;80;21553;-48
2021/10/29 04:14:07;;;;;;;17.50;12.80;;;;;;;21.94;56.53;101758.14;1760573;80;21012;-50
2021/10/29 04:16:37;;;;;;;15.85;13.18;;;;;;;21.98;56.56;101763.33;1765165;80;21437;-47
2021/10/29 04:19:05;;;;;;;19.20;14.20;;;;;;;22.02;56.56;101766.58;1763851;79;21131;-50
2021/10/29 04:21:32;;;;;;;19.37;13.10;;;;;;;22.06;56.51;101759.85;1761067;80;21260;-48
2021/10/29 04:23:58;;;;;;;17.15;13.22;;;;;;;22.08;56.45;101763.13;1765136;81;21034;-49
2021/10/29 04:26:24;;;;;;;18.98;14.30;;;;;;;22.10;56.37;101770.59;1757906;80;21034;-47
2021/10/29 04:28:55;;;;;;;18.80;13.85;;;;;;;22.11;56.29;101762.50;1760120;79;21045;-48
2021/10/29 04:31:26;;;;;;;20.57;14.25;;;;;;;22.13;56.21;101768.58;1760079;80;21165;-50
2021/10/29 04:33:51;;;;;;;20.37;13.65;;;;;;;22.12;56.18;101760.83;1760660;81;21488;-48
2021/10/29 04:36:18;;;;;;;21.33;13.98;;;;;;;22.11;56.13;101771.65;1762621;80;21120;-49
2021/10/29 04:38:46;;;;;;;19.12;13.75;;;;;;;22.11;56.11;101777.75;1764845;80;21085;-49
2021/10/29 04:41:14;;;;;;;19.77;14.33;;;;;;;22.10;56.09;101783.06;1762629;80;21321;-49
2021/10/29 04:43:40;;;;;;;21.45;14.07;;;;;;;22.10;56.06;101783.06;1760686;80;21651;-50
2021/10/29 04:46:06;;;;;;;18.70;13.15;;;;;;;22.09;56.03;101788.34;1754169;81;21238;-47
2021/10/29 04:48:33;;;;;;;16.73;13.43;;;;;;;22.09;56.01;101784.17;1755157;80;21047;-49
2021/10/29 04:50:59;;;;;;;14.87;11.68;;;;;;;22.08;56.00;101786.69;1746209;80;21367;-47
2021/10/29 04:53:25;;;;;;;18.20;12.98;;;;;;;22.07;55.95;101785.86;1738182;81;20933;-50
2021/10/29 04:55:52;;;;;;;18.35;13.58;;;;;;;22.07;55.95;101786.41;1736653;82;20948;-48
2021/10/29 04:58:18;;;;;;;21.85;14.23;;;;;;;22.07;55.95;101790.58;1718229;81;22000;-47
2021/10/29 05:00:44;;;;;;;24.30;15.18;;;;;;;22.03;55.94;101782.61;1750786;80;20885;-45
2021/10/29 05:03:10;;;;;;;32.85;17.60;;;;;;;22.04;55.95;101787.03;1745376;80;21114;-46
2021/10/29 05:05:37;;;;;;;28.45;15.88;;;;;;;22.02;55.96;101792.07;1727278;81;22001;-50
2021/10/29 05:08:05;;;;;;;32.78;14.98;;;;;;;22.02;55.96;101792.07;1718232;83;21071;-48
2021/10/29 05:10:32;;;;;;;32.75;16.55;;;;;;;22.01;55.96;101790.42;1726793;82;21585;-48
2021/10/29 05:12:59;;;;;;;23.80;12.85;;;;;;;22.01;55.98;101787.65;1748927;81;21116;-49
2021/10/29 05:15:25;;;;;;;49.48;19.30;;;;;;;22.00;55.99;101793.75;1717918;81;21090;-49
2021/10/29 05:17:53;;;;;;;164.52;44.75;;;;;;;22.00;56.00;101793.75;1727179;81;21095;-45
2021/10/29 05:20:19;;;;;;;55.70;20.40;;;;;;;22.01;56.00;101795.96;1738476;80;21286;-48
2021/10/29 05:22:45;;;;;;;39.33;18.30;;;;;;;22.01;55.98;101797.34;1751982;81;21256;-49
2021/10/29 05:25:11;;;;;;;23.70;14.68;;;;;;;22.00;55.95;101804.00;1746011;80;21591;-46
2021/10/29 05:27:37;;;;;;;24.77;15.45;;;;;;;22.00;55.95;101806.22;1725787;82;21025;-45
2021/10/29 05:30:06;;;;;;;23.80;14.87;;;;;;;21.98;55.94;101804.89;1717235;81;21622;-45
2021/10/29 05:32:32;;;;;;;18.12;14.13;;;;;;;21.97;55.94;101807.39;1721995;81;21131;-47
2021/10/29 05:35:00;;;;;;;18.87;13.62;;;;;;;21.96;55.92;101818.20;1747407;81;22083;-47
2021/10/29 05:37:29;;;;;;;19.62;13.62;;;;;;;21.93;55.96;101808.56;1729415;81;21076;-50
2021/10/29 05:39:55;;;;;;;20.62;13.15;;;;;;;21.92;55.94;101813.84;1721676;81;21107;-54
2021/10/29 05:42:21;;;;;;;22.82;13.10;;;;;;;21.93;55.94;101817.44;1746803;80;21074;-48
2021/10/29 05:44:48;;;;;;;18.75;13.60;;;;;;;21.92;55.98;101819.91;1726290;81;21480;-52
2021/10/29 05:47:15;;;;;;;18.67;13.88;;;;;;;21.91;55.98;101818.25;1732570;81;21291;-50
2021/10/29 05:49:42;;;;;;;17.77;12.82;;;;;;;21.92;56.00;101818.52;1732239;80;21130;-47
2021/10/29 05:52:15;;;;;;;20.72;14.45;;;;;;;21.91;55.99;101814.92;1757307;81;21482;-48
2021/10/29 05:54:44;;;;;;;21.57;14.58;;;;;;;21.92;55.97;101817.14;1757262;80;21562;-47
2021/10/29 05:57:05;;;;;;;22.82;13.85;;;;;;;21.92;55.97;101821.30;1766851;80;21065;-50
2021/10/29 05:59:34;;;;;;;19.27;13.32;;;;;;;21.91;55.95;101821.02;1763507;80;21969;-49
2021/10/29 06:01:59;;;;;;;18.27;12.82;;;;;;;21.90;55.93;101821.58;1764547;80;21037;-49
2021/10/29 06:04:26;;;;;;;20.27;12.70;;;;;;;21.90;55.90;101823.56;1758509;80;21078;-48
2021/10/29 06:06:53;;;;;;;19.40;13.75;;;;;;;21.87;55.89;101825.80;1763011;80;21093;-48
2021/10/29 06:09:19;;;;;;;22.87;13.93;;;;;;;21.85;55.89;101822.48;1759859;80;21033;-47
2021/10/29 06:11:45;;;;;;;18.98;12.80;;;;;;;21.85;55.90;101824.46;1756822;79;21325;-50
2021/10/29 06:14:11;;;;;;;20.55;13.85;;;;;;;21.84;55.91;101822.81;1759565;81;21649;-49
2021/10/29 06:16:37;;;;;;;18.92;12.78;;;;;;;21.83;55.90;101832.23;1762971;79;20926;-47
2021/10/29 06:19:04;;;;;;;21.27;13.48;;;;;;;21.82;55.91;101827.81;1765826;79;21461;-50
2021/10/29 06:21:35;;;;;;;18.48;13.13;;;;;;;21.82;55.90;101826.43;1756685;79;21044;-49
2021/10/29 06:24:01;;;;;;;19.17;13.48;;;;;;;21.82;55.91;101830.02;1763230;79;21166;-47
2021/10/29 06:26:28;;;;;;;18.42;12.60;;;;;;;21.81;55.88;101828.38;1758693;79;21074;-50
2021/10/29 06:28:54;;;;;;;20.92;12.75;;;;;;;21.81;55.88;101826.98;1759699;81;21011;-47
2021/10/29 06:31:20;;;;;;;19.12;12.63;;;;;;;21.81;55.86;101825.60;1764041;80;21079;-48
2021/10/29 06:33:47;;;;;;;17.92;12.03;;;;;;;21.82;55.83;101828.64;1762557;81;21131;-49
2021/10/29 06:36:13;;;;;;;19.57;12.53;;;;;;;21.82;55.80;101832.80;1760133;81;21152;-49
2021/10/29 06:38:40;;;;;;;19.67;12.33;;;;;;;21.79;55.81;101835.35;1764805;80;21508;-47
2021/10/29 06:41:07;;;;;;;20.23;12.93;;;;;;;21.78;55.80;101828.16;1755783;79;21083;-50
2021/10/29 06:43:41;;;;;;;18.45;13.40;;;;;;;21.76;55.79;101835.41;1756056;79;21089;-50
2021/10/29 06:49:05;;;;;;;20.08;13.35;;;;;;;21.76;55.81;101845.66;1764604;79;21561;-49
2021/10/29 06:59:48;;;;;;;22.13;12.37;;;;;;;21.73;55.80;101844.84;1737548;80;21020;-48
2021/10/29 07:40:09;;;;;;;15.98;12.15;;;;;;;21.61;55.68;101846.69;1752762;81;21653;-50
2021/10/29 07:42:42;;;;;;;17.82;11.83;;;;;;;21.60;55.67;101849.78;1744074;81;21915;-50
2021/10/29 07:45:09;;;;;;;20.23;13.43;;;;;;;21.57;55.67;101852.57;1734499;81;21105;-53
2021/10/29 07:47:37;;;;;;;17.60;12.05;;;;;;;21.57;55.69;101848.42;1747152;81;21593;-47
2021/10/29 07:50:05;;;;;;;17.85;12.45;;;;;;;21.56;55.69;101849.53;1761164;80;21520;-48
2021/10/29 07:52:33;;;;;;;17.52;12.53;;;;;;;21.56;55.69;101852.86;1743674;80;21040;-48
2021/10/29 07:54:59;;;;;;;16.27;11.80;;;;;;;21.57;55.72;101852.57;1752388;80;21147;-49
2021/10/29 07:57:25;;;;;;;17.35;12.58;;;;;;;21.57;55.71;101848.97;1749413;81;21067;-48
2021/10/29 07:59:53;;;;;;;17.40;12.20;;;;;;;21.56;55.71;101846.76;1746802;80;21058;-48
2021/10/29 08:02:19;;;;;;;19.65;13.55;;;;;;;21.57;55.70;101845.65;1777364;80;21102;-50
2021/10/29 08:04:46;;;;;;;18.52;12.68;;;;;;;21.58;55.70;101839.55;1777376;80;21075;-48
2021/10/29 08:07:12;;;;;;;16.65;12.63;;;;;;;21.58;55.67;101845.92;1756833;79;21654;-49
2021/10/29 08:09:41;;;;;;;17.75;12.82;;;;;;;21.59;55.67;101843.97;1756116;80;21095;-48
2021/10/29 08:12:09;;;;;;;17.77;12.20;;;;;;;21.58;55.64;101839.55;1758369;80;21118;-50
2021/10/29 08:14:35;;;;;;;19.23;13.13;;;;;;;21.54;55.63;101831.02;1780174;79;22471;-49
2021/10/29 08:17:01;;;;;;;19.60;13.58;;;;;;;21.57;55.62;101837.34;1779432;79;21061;-50
2021/10/29 08:19:32;;;;;;;17.67;12.15;;;;;;;21.57;55.63;101847.03;1782706;79;21552;-46
2021/10/29 08:22:00;;;;;;;17.02;12.60;;;;;;;21.56;55.62;101842.61;1781670;79;21400;-50
2021/10/29 08:24:27;;;;;;;17.35;12.78;;;;;;;21.56;55.62;101843.16;1780858;79;21436;-49
2021/10/29 08:26:53;;;;;;;16.02;12.03;;;;;;;21.56;55.61;101846.76;1783866;79;21045;-48
2021/10/29 08:29:21;;;;;;;19.90;13.13;;;;;;;21.56;55.61;101839.84;1764191;80;21668;-50
2021/10/29 08:31:48;;;;;;;15.78;11.83;;;;;;;21.57;55.58;101840.66;1765507;80;21268;-55
2021/10/29 08:34:15;;;;;;;17.57;12.78;;;;;;;21.57;55.58;101839.28;1764926;80;21131;-49
2021/10/29 08:36:43;;;;;;;16.27;11.95;;;;;;;21.58;55.57;101844.53;1765054;80;21468;-50
2021/10/29 08:39:09;;;;;;;18.95;12.55;;;;;;;21.58;55.53;101843.15;1761840;80;21062;-50
2021/10/29 08:41:36;;;;;;;17.20;11.75;;;;;;;21.59;55.52;101843.42;1763914;79;20984;-49
2021/10/29 08:44:05;;;;;;;14.63;12.00;;;;;;;21.58;55.48;101847.30;1765332;80;21480;-48
2021/10/29 08:46:31;;;;;;;17.52;12.90;;;;;;;21.57;55.43;101840.11;1762095;80;21472;-48
2021/10/29 08:48:58;;;;;;;16.75;12.98;;;;;;;21.56;55.44;101843.98;1768970;80;21080;-48
2021/10/29 08:51:24;;;;;;;17.35;12.43;;;;;;;21.54;55.43;101846.25;1768873;80;21059;-50
2021/10/29 08:53:52;;;;;;;15.28;11.18;;;;;;;21.54;55.42;101849.02;1746587;81;21056;-50
2021/10/29 08:56:18;;;;;;;16.10;11.80;;;;;;;21.54;55.40;101841.27;1748043;80;21161;-50
2021/10/29 08:59:07;;;;;;;16.60;12.55;;;;;;;21.55;55.39;101838.77;1748636;81;21698;-50
2021/10/29 09:01:59;;;;;;;15.93;11.60;;;;;;;21.54;55.42;101836.56;1747375;80;21059;-51
2021/10/29 09:04:47;;;;;;;18.60;12.63;;;;;;;21.55;55.37;101840.16;1746212;81;21493;-50
2021/10/29 09:33:00;;;;;;;14.53;10.75;;;;;;;21.47;55.27;101812.59;1761128;80;20989;-51
2021/10/29 09:35:29;;;;;;;17.62;11.53;;;;;;;21.46;55.27;101804.57;1760074;80;21018;-51
2021/10/29 09:38:09;;;;;;;15.95;11.10;;;;;;;21.46;55.27;101802.63;1759929;81;21276;-47
2021/10/29 09:40:38;;;;;;;14.38;10.65;;;;;;;21.46;55.28;101805.95;1766172;81;21462;-51
2021/10/29 09:43:13;;;;;;;16.27;11.33;;;;;;;21.46;55.26;101806.78;1760394;80;20960;-51
2021/10/29 09:45:56;;;;;;;13.30;10.48;;;;;;;21.45;55.25;101801.53;1759396;81;21076;-50
2021/10/29 09:48:36;;;;;;;14.58;11.45;;;;;;;21.45;55.24;101804.30;1764333;80;21531;-51
2021/10/29 09:50:59;;;;;;;16.87;11.12;;;;;;;21.44;55.23;101803.47;1759169;80;22084;-49
2021/10/29 09:58:47;;;;;;;15.53;10.63;;;;;;;21.45;55.23;101803.74;1759098;79;21033;-51
2021/10/29 10:01:13;;;;;;;12.85;10.08;;;;;;;21.43;55.19;101793.52;1758801;81;21081;-50
2021/10/29 10:03:39;;;;;;;14.40;10.75;;;;;;;21.43;55.23;101786.03;1753698;80;22035;-51
2021/10/29 10:06:06;;;;;;;16.40;10.63;;;;;;;21.43;55.23;101787.42;1756523;80;21007;-49
2021/10/29 10:08:33;;;;;;;14.28;10.70;;;;;;;21.44;55.21;101782.70;1754602;80;21068;-49
2021/10/29 10:10:59;;;;;;;14.23;10.10;;;;;;;21.45;55.21;101780.20;1762162;80;21068;-51
2021/10/29 10:13:26;;;;;;;15.88;10.88;;;;;;;21.45;55.20;101781.59;1763564;81;21079;-49
2021/10/29 10:15:55;;;;;;;14.83;10.00;;;;;;;21.45;55.18;101771.91;1756022;80;22276;-51
2021/10/29 10:18:23;;;;;;;15.65;10.75;;;;;;;21.46;55.16;101772.17;1755875;80;21039;-51
2021/10/29 10:20:52;;;;;;;15.13;10.50;;;;;;;21.44;55.15;101767.48;1761199;80;21064;-49
2021/10/29 10:23:21;;;;;;;14.58;11.28;;;;;;;21.44;55.12;101766.09;1757921;79;21615;-48
2021/10/29 10:44:45;;;;;;;13.88;9.68;;;;;;;21.46;55.02;101756.95;1730881;80;21100;-53
2021/10/29 10:47:02;;;;;;;13.18;10.08;;;;;;;21.45;55.01;101753.91;1760698;80;20997;-50
2021/10/29 10:49:56;;;;;;;13.75;9.93;;;;;;;21.45;55.00;101754.47;1762329;80;21120;-49
2021/10/29 10:52:27;;;;;;;14.38;9.75;;;;;;;21.44;54.98;101753.64;1751801;80;21029;-49
2021/10/29 10:54:55;;;;;;;14.50;9.60;;;;;;;21.43;54.96;101752.81;1763198;80;21420;-53
2021/10/29 11:05:41;;;;;;;13.28;8.85;;;;;;;21.46;54.93;101750.58;1759793;80;21067;-49
2021/10/29 11:11:21;;;;;;;15.32;9.65;;;;;;;21.47;54.85;101749.47;1757142;79;21120;-49
2021/10/29 11:13:59;;;;;;;12.90;9.35;;;;;;;21.47;54.79;101745.31;1762490;81;20943;-51
2021/10/29 11:16:38;;;;;;;18.30;9.35;;;;;;;21.46;54.71;101739.50;1761576;81;21059;-50
2021/10/29 11:19:18;;;;;;;14.23;9.70;;;;;;;21.46;54.64;101736.73;1755885;80;21104;-50
2021/10/29 11:21:51;;;;;;;14.28;9.58;;;;;;;21.45;54.59;101734.53;1762622;80;21474;-51
2021/10/29 11:24:34;;;;;;;12.53;9.23;;;;;;;21.45;54.56;101731.76;1751745;80;21095;-51
2021/10/29 11:27:12;;;;;;;12.07;8.33;;;;;;;21.44;54.54;101728.72;1757997;80;21026;-52
2021/10/29 11:29:52;;;;;;;14.75;9.68;;;;;;;21.43;54.54;101729.84;1754464;80;21079;-48
2021/10/29 11:32:22;;;;;;;13.00;9.08;;;;;;;21.43;54.52;101727.89;1750555;80;21574;-53
2021/10/29 11:34:51;;;;;;;14.95;9.93;;;;;;;21.43;54.48;101725.13;1765531;80;21185;-51
2021/10/29 11:37:18;;;;;;;10.98;8.80;;;;;;;21.44;54.47;101719.03;1754095;80;21610;-47
2021/10/29 11:39:44;;;;;;;12.82;9.03;;;;;;;21.45;54.47;101707.40;1762456;80;21475;-52
2021/10/29 11:42:10;;;;;;;12.25;8.05;;;;;;;21.45;54.46;101705.45;1757457;81;21059;-50
2021/10/29 11:44:39;;;;;;;12.03;9.30;;;;;;;21.46;54.46;101702.95;1762085;80;21748;-54
2021/10/29 11:47:06;;;;;;;12.73;9.08;;;;;;;21.47;54.47;101701.84;1764593;79;21957;-51
2021/10/29 11:49:33;;;;;;;12.80;9.03;;;;;;;21.48;54.46;101706.78;1755690;79;21094;-53
2021/10/29 11:52:04;;;;;;;12.30;9.05;;;;;;;21.48;54.46;101700.69;1740772;81;21530;-50
2021/10/29 11:54:34;;;;;;;12.58;8.38;;;;;;;21.48;54.46;101696.54;1717295;81;21104;-52
2021/10/29 11:59:53;;;;;;;11.93;8.50;;;;;;;21.49;54.48;101699.58;1738253;81;21027;-50
2021/10/29 12:07:24;;;;;;;13.58;8.20;;;;;;;21.48;54.53;101692.39;1748117;80;21068;-49
2021/10/29 12:10:13;;;;;;;10.65;7.97;;;;;;;21.49;54.52;101692.66;1728595;81;21077;-47
2021/10/29 12:12:41;;;;;;;11.55;8.10;;;;;;;21.49;54.54;101691.27;1729000;82;21149;-49
2021/10/29 12:15:14;;;;;;;11.78;8.13;;;;;;;21.50;54.54;101683.23;1727646;81;21096;-50
2021/10/29 12:17:53;;;;;;;13.35;8.15;;;;;;;21.51;54.52;101682.67;1748947;81;21585;-46
2021/10/29 12:20:32;;;;;;;10.00;7.58;;;;;;;21.51;54.54;101682.11;1750927;80;21194;-47
2021/10/29 12:23:06;;;;;;;10.72;7.72;;;;;;;21.52;54.55;101678.20;1721598;81;21057;-48
2021/10/29 12:25:37;;;;;;;12.10;8.18;;;;;;;21.51;54.54;101673.80;1710601;81;22035;-46
2021/10/29 12:28:05;;;;;;;10.70;7.97;;;;;;;21.53;54.54;101676.25;1735011;81;21107;-49
2021/10/29 12:30:38;;;;;;;13.20;8.23;;;;;;;21.53;54.57;101674.87;1735539;81;21062;-48
2021/10/29 12:33:34;;;;;;;11.10;7.85;;;;;;;21.53;54.56;101674.31;1734918;81;21080;-50
2021/10/29 12:58:53;;;;;;;12.18;7.45;;;;;;;21.52;54.56;101667.67;1723164;82;21060;-49
2021/10/29 13:01:28;;;;;;;8.68;7.08;;;;;;;21.50;54.58;101663.84;1707532;82;21523;-48
2021/10/29 13:04:05;;;;;;;9.95;6.33;;;;;;;21.51;54.57;101669.66;1741749;80;21559;-49
2021/10/29 13:06:40;;;;;;;10.13;7.20;;;;;;;21.52;54.57;101666.30;1721788;82;21876;-50
2021/10/29 13:09:23;;;;;;;9.53;6.85;;;;;;;21.53;54.57;101665.17;1717026;81;21154;-48
2021/10/29 13:11:54;;;;;;;8.63;6.50;;;;;;;21.53;54.57;101656.87;1745951;80;21012;-51
2021/10/29 13:14:26;;;;;;;10.50;6.70;;;;;;;21.54;54.56;101657.96;1743890;81;21454;-51
2021/10/29 13:16:50;;;;;;;7.87;5.92;;;;;;;21.55;54.58;101655.46;1746480;80;21214;-48
2021/10/29 13:19:29;;;;;;;9.10;6.42;;;;;;;21.54;54.56;101656.58;1745911;81;21173;-48
2021/10/29 13:24:40;;;;;;;11.45;7.70;;;;;;;21.55;54.56;101661.55;1724406;82;21108;-47
2021/10/29 13:35:30;;;;;;;9.68;6.40;;;;;;;21.53;54.56;101668.77;1687285;82;21614;-50
2021/10/29 13:54:13;;;;;;;10.28;6.85;;;;;;;21.51;54.50;101663.29;1761059;80;21068;-50
2021/10/29 13:59:15;;;;;;;10.85;7.17;;;;;;;21.51;54.52;101660.52;1757757;80;21181;-51
2021/10/29 14:28:42;;;;;;;8.93;5.67;;;;;;;21.68;54.18;101671.85;1765513;80;21095;-48
2021/10/29 14:31:07;;;;;;;8.55;5.42;;;;;;;21.70;54.14;101675.13;1753596;80;21064;-51
2021/10/29 14:33:32;;;;;;;7.92;5.37;;;;;;;21.71;54.14;101678.16;1763878;81;21127;-49
2021/10/29 14:35:58;;;;;;;7.45;5.12;;;;;;;21.73;54.11;101673.95;1764457;81;21103;-48
2021/10/29 14:41:08;;;;;;;7.33;4.97;;;;;;;21.78;54.07;101677.19;1759007;80;21083;-51